createdAt,value
2018-02-14T00:00:04.248Z,6.07
2018-02-14T00:02:31.754Z,5.22
2018-02-14T00:05:00.069Z,7.00
2018-02-14T00:07:27.547Z,6.57
2018-02-14T00:09:55.038Z,7.30
2018-02-14T00:12:22.543Z,6.80
2018-02-14T00:14:50.268Z,5.83
2018-02-14T00:17:20.250Z,4.70
2018-02-14T00:19:47.961Z,5.85
2018-02-14T00:22:15.470Z,5.70
2018-02-14T00:24:42.954Z,7.50
2018-02-14T00:27:11.283Z,6.70
2018-02-14T00:29:38.818Z,6.13
2018-02-14T00:32:06.364Z,7.67
2018-02-14T00:34:34.707Z,7.47
2018-02-14T00:37:02.312Z,6.62
2018-02-14T00:39:29.831Z,7.22
2018-02-14T00:41:57.363Z,6.40
2018-02-14T00:44:25.651Z,6.55
2018-02-14T00:46:53.179Z,6.20
2018-02-14T00:49:20.694Z,7.10
2018-02-14T00:51:48.224Z,6.47
2018-02-14T00:54:15.742Z,6.68
2018-02-14T00:56:43.255Z,6.30
2018-02-14T00:59:10.806Z,6.32
2018-02-14T01:01:38.332Z,6.82
2018-02-14T01:04:05.876Z,7.40
2018-02-14T01:06:33.427Z,6.22
2018-02-14T01:09:00.965Z,6.35
2018-02-14T01:11:28.526Z,5.97
2018-02-14T01:13:56.842Z,5.82
2018-02-14T01:16:24.338Z,6.55
2018-02-14T01:18:52.085Z,6.82
2018-02-14T01:21:19.574Z,6.97
2018-02-14T01:23:47.865Z,6.37
2018-02-14T01:26:16.123Z,6.85
2018-02-14T01:28:44.378Z,5.97
2018-02-14T01:31:12.658Z,6.43
2018-02-14T01:33:40.190Z,7.03
2018-02-14T01:36:07.716Z,7.12
2018-02-14T01:38:35.283Z,6.95
2018-02-14T01:41:02.792Z,6.80
2018-02-14T01:43:30.317Z,7.82
2018-02-14T01:45:57.949Z,7.47
2018-02-14T01:48:25.480Z,6.18
2018-02-14T01:50:52.999Z,7.40
2018-02-14T01:53:20.509Z,5.93
2018-02-14T01:55:48.857Z,8.30
2018-02-14T01:58:16.420Z,6.55
2018-02-14T02:00:44.694Z,6.65
2018-02-14T02:03:12.216Z,7.70
2018-02-14T02:05:39.831Z,7.47
2018-02-14T02:08:07.373Z,7.75
2018-02-14T02:10:34.911Z,7.20
2018-02-14T02:13:02.440Z,8.15
2018-02-14T02:15:29.962Z,7.40
2018-02-14T02:17:57.519Z,7.95
2018-02-14T02:20:25.038Z,6.45
2018-02-14T02:22:52.545Z,7.20
2018-02-14T02:25:20.068Z,6.62
2018-02-14T02:27:48.367Z,7.05
2018-02-14T02:30:15.888Z,7.07
2018-02-14T02:32:43.641Z,7.15
2018-02-14T02:35:11.935Z,7.57
2018-02-14T02:37:39.479Z,6.95
2018-02-14T02:40:18.918Z,7.18
2018-02-14T02:42:46.428Z,7.05
2018-02-14T02:45:13.915Z,7.53
2018-02-14T02:47:41.418Z,7.85
2018-02-14T02:50:08.934Z,8.15
2018-02-14T02:52:36.412Z,8.23
2018-02-14T02:55:03.924Z,8.77
2018-02-14T02:57:31.449Z,7.15
2018-02-14T02:59:58.943Z,6.95
2018-02-14T03:02:27.220Z,7.47
2018-02-14T03:04:55.474Z,8.88
2018-02-14T03:07:22.987Z,7.70
2018-02-14T03:09:50.483Z,7.65
2018-02-14T03:12:18.805Z,7.55
2018-02-14T03:14:46.313Z,7.30
2018-02-14T03:17:13.799Z,7.72
2018-02-14T03:19:41.314Z,7.32
2018-02-14T03:22:08.798Z,7.30
2018-02-14T03:24:36.286Z,6.90
2018-02-14T03:27:04.572Z,7.90
2018-02-14T03:29:32.080Z,7.70
2018-02-14T03:31:59.582Z,7.95
2018-02-14T03:34:27.053Z,8.48
2018-02-14T03:36:54.539Z,8.27
2018-02-14T03:39:22.046Z,8.15
2018-02-14T03:41:50.305Z,8.95
2018-02-14T03:44:18.575Z,8.57
2018-02-14T03:46:46.059Z,8.45
2018-02-14T03:49:13.552Z,8.05
2018-02-14T03:51:41.046Z,9.35
2018-02-14T03:54:08.539Z,9.27
2018-02-14T03:56:36.068Z,9.32
2018-02-14T03:59:03.564Z,7.95
2018-02-14T04:01:31.061Z,8.70
2018-02-14T04:03:59.527Z,8.52
2018-02-14T04:06:27.002Z,8.45
2018-02-14T04:08:54.508Z,10.43
2018-02-14T04:11:22.014Z,9.75
2018-02-14T04:13:49.517Z,10.80
2018-02-14T04:16:17.039Z,8.80
2018-02-14T04:18:44.534Z,10.10
2018-02-14T04:21:12.051Z,9.48
2018-02-14T04:23:39.529Z,9.15
2018-02-14T04:26:07.803Z,9.13
2018-02-14T04:28:36.061Z,9.65
2018-02-14T04:31:03.563Z,10.00
2018-02-14T04:33:31.058Z,11.50
2018-02-14T04:35:58.566Z,9.85
2018-02-14T04:38:26.070Z,9.88
2018-02-14T04:40:54.693Z,8.90
2018-02-14T04:43:22.164Z,10.45
2018-02-14T04:45:49.664Z,9.75
2018-02-14T04:48:17.166Z,10.27
2018-02-14T04:50:44.654Z,10.43
2018-02-14T04:53:12.144Z,9.95
2018-02-14T04:55:39.626Z,8.52
2018-02-14T04:58:07.111Z,10.32
2018-02-14T05:00:34.627Z,8.77
2018-02-14T05:03:02.140Z,9.75
2018-02-14T05:05:29.629Z,11.38
2018-02-14T05:07:57.132Z,10.02
2018-02-14T05:10:25.404Z,10.50
2018-02-14T05:12:53.688Z,11.32
2018-02-14T05:15:21.181Z,7.60
2018-02-14T05:17:48.739Z,10.07
2018-02-14T05:20:16.219Z,9.68
2018-02-14T05:22:43.706Z,9.00
2018-02-14T05:25:11.484Z,10.63
2018-02-14T05:27:39.006Z,9.57
2018-02-14T05:30:06.509Z,10.45
2018-02-14T05:32:33.990Z,9.88
2018-02-14T05:35:01.535Z,11.63
2018-02-14T05:37:29.044Z,8.38
2018-02-14T05:39:56.899Z,9.88
2018-02-14T05:42:24.431Z,11.85
2018-02-14T05:44:52.756Z,10.48
2018-02-14T05:47:20.224Z,10.40
2018-02-14T05:49:48.495Z,11.35
2018-02-14T05:52:15.995Z,10.90
2018-02-14T05:54:43.520Z,9.25
2018-02-14T05:57:11.782Z,8.38
2018-02-14T05:59:39.375Z,10.15
2018-02-14T06:02:06.941Z,9.98
2018-02-14T06:04:34.451Z,11.35
2018-02-14T06:07:01.963Z,11.27
2018-02-14T06:09:29.482Z,10.30
2018-02-14T06:11:57.760Z,11.40
2018-02-14T06:14:25.260Z,12.00
2018-02-14T06:16:52.791Z,10.10
2018-02-14T06:19:20.304Z,11.12
2018-02-14T06:21:47.788Z,10.55
2018-02-14T06:24:15.281Z,10.13
2018-02-14T06:26:42.778Z,10.23
2018-02-14T06:29:10.284Z,11.48
2018-02-14T06:31:38.564Z,12.73
2018-02-14T06:34:06.077Z,12.18
2018-02-14T06:36:33.644Z,12.55
2018-02-14T06:39:01.172Z,12.37
2018-02-14T06:41:28.708Z,11.00
2018-02-14T06:43:56.220Z,12.80
2018-02-14T06:46:23.758Z,11.57
2018-02-14T06:48:51.246Z,11.48
2018-02-14T06:51:19.062Z,12.80
2018-02-14T06:53:46.555Z,11.30
2018-02-14T06:56:14.052Z,11.32
2018-02-14T06:58:41.590Z,13.38
2018-02-14T07:01:09.128Z,12.00
2018-02-14T07:03:36.689Z,13.30
2018-02-14T07:06:04.157Z,11.25
2018-02-14T07:08:31.740Z,12.20
2018-02-14T07:11:00.030Z,11.12
2018-02-14T07:13:27.563Z,11.50
2018-02-14T07:15:55.072Z,10.50
2018-02-14T07:18:22.582Z,11.05
2018-02-14T07:20:50.888Z,11.80
2018-02-14T07:23:24.100Z,12.23
2018-02-14T07:25:51.603Z,13.65
2018-02-14T07:28:19.147Z,11.95
2018-02-14T07:30:46.657Z,12.13
2018-02-14T07:33:14.195Z,12.60
2018-02-14T07:35:41.678Z,12.02
2018-02-14T07:38:09.200Z,12.60
2018-02-14T07:40:36.728Z,12.05
2018-02-14T07:43:04.260Z,12.80
2018-02-14T07:45:31.888Z,11.35
2018-02-14T07:47:59.391Z,11.70
2018-02-14T07:50:26.907Z,13.20
2018-02-14T07:52:54.391Z,12.57
2018-02-14T07:55:21.890Z,12.05
2018-02-14T07:57:49.400Z,11.88
2018-02-14T08:00:17.728Z,12.85
2018-02-14T08:02:45.250Z,11.68
2018-02-14T08:05:12.756Z,12.32
2018-02-14T08:07:41.050Z,12.13
2018-02-14T08:10:08.528Z,11.70
2018-02-14T08:12:36.059Z,12.15
2018-02-14T08:15:03.559Z,12.77
2018-02-14T08:17:31.063Z,12.25
2018-02-14T08:19:59.339Z,12.95
2018-02-14T08:22:27.616Z,12.98
2018-02-14T08:24:55.862Z,11.57
2018-02-14T08:27:23.413Z,11.10
2018-02-14T08:29:51.320Z,11.12
2018-02-14T08:32:19.568Z,13.23
2018-02-14T08:34:47.068Z,11.10
2018-02-14T08:37:14.596Z,13.03
2018-02-14T08:39:42.092Z,14.07
2018-02-14T08:42:09.621Z,11.57
2018-02-14T08:44:37.877Z,13.50
2018-02-14T08:47:05.344Z,13.60
2018-02-14T08:49:32.877Z,12.33
2018-02-14T08:52:00.427Z,11.20
2018-02-14T08:54:27.948Z,12.17
2018-02-14T08:56:56.468Z,13.10
2018-02-14T08:59:23.970Z,10.43
2018-02-14T09:01:52.247Z,9.97
2018-02-14T09:04:19.718Z,10.50
2018-02-14T09:06:47.217Z,10.03
2018-02-14T09:09:14.727Z,12.30
2018-02-14T09:11:42.999Z,9.90
2018-02-14T09:14:11.253Z,12.17
2018-02-14T09:16:43.550Z,12.47
2018-02-14T09:19:11.040Z,10.67
2018-02-14T09:21:38.556Z,11.87
2018-02-14T09:24:06.806Z,13.20
2018-02-14T09:26:34.294Z,12.53
2018-02-14T09:29:02.559Z,11.70
2018-02-14T09:31:30.849Z,11.97
2018-02-14T09:33:59.104Z,11.27
2018-02-14T09:36:26.575Z,10.67
2018-02-14T09:38:54.074Z,9.87
2018-02-14T09:41:21.568Z,10.80
2018-02-14T09:43:49.068Z,11.00
2018-02-14T09:46:16.545Z,11.87
2018-02-14T09:48:44.080Z,11.00
2018-02-14T09:51:11.558Z,9.87
2018-02-14T09:53:39.051Z,11.40
2018-02-14T09:56:06.535Z,9.90
2018-02-14T09:58:34.035Z,8.13
2018-02-14T10:01:01.528Z,7.90
2018-02-14T10:03:29.022Z,8.37
2018-02-14T10:05:56.506Z,10.67
2018-02-14T10:08:25.117Z,8.20
2018-02-14T10:10:52.747Z,8.00
2018-02-14T10:13:22.013Z,9.87
2018-02-14T10:15:49.711Z,8.93
2018-02-14T10:18:17.230Z,9.53
2018-02-14T10:20:44.810Z,7.73
2018-02-14T10:23:13.725Z,9.43
2018-02-14T10:25:41.396Z,9.20
2018-02-14T10:28:09.747Z,8.57
2018-02-14T10:30:38.544Z,8.40
2018-02-14T10:33:06.177Z,9.13
2018-02-14T10:35:34.592Z,9.47
2018-02-14T10:38:02.182Z,8.27
2018-02-14T10:40:30.472Z,8.83
2018-02-14T10:42:58.033Z,8.67
2018-02-14T10:45:25.572Z,6.90
2018-02-14T10:47:53.074Z,8.73
2018-02-14T10:50:20.580Z,7.60
2018-02-14T10:52:48.115Z,7.37
2018-02-14T10:55:15.692Z,8.57
2018-02-14T10:57:43.259Z,6.20
2018-02-14T11:00:10.739Z,7.70
2018-02-14T11:02:43.980Z,6.93
2018-02-14T11:05:17.150Z,6.53
2018-02-14T11:07:44.694Z,5.60
2018-02-14T11:10:12.957Z,4.33
2018-02-14T11:12:40.458Z,6.83
2018-02-14T11:15:07.969Z,4.67
2018-02-14T11:17:35.472Z,6.73
2018-02-14T11:20:02.984Z,7.10
2018-02-14T11:22:30.563Z,7.40
2018-02-14T11:24:58.073Z,6.90
2018-02-14T11:27:25.564Z,7.40
2018-02-14T11:29:53.070Z,5.77
2018-02-14T11:32:20.609Z,5.97
2018-02-14T11:34:48.105Z,5.43
2018-02-14T11:37:15.614Z,4.37
2018-02-14T11:39:43.872Z,5.40
2018-02-14T11:42:11.330Z,5.73
2018-02-14T11:44:38.846Z,5.97
2018-02-14T11:47:06.340Z,5.03
2018-02-14T11:49:34.136Z,6.60
2018-02-14T11:52:01.624Z,6.57
2018-02-14T11:54:29.137Z,6.73
2018-02-14T11:56:56.633Z,5.80
2018-02-14T11:59:24.123Z,6.60
2018-02-14T12:01:51.629Z,6.67
2018-02-14T12:04:19.104Z,7.47
2018-02-14T12:06:46.607Z,7.47
2018-02-14T12:09:14.104Z,8.33
2018-02-14T12:11:41.628Z,7.90
2018-02-14T12:14:09.128Z,6.80
2018-02-14T12:16:36.605Z,7.67
2018-02-14T12:19:04.125Z,8.50
2018-02-14T12:21:31.627Z,6.83
2018-02-14T12:23:59.124Z,7.23
2018-02-14T12:26:27.376Z,7.83
2018-02-14T12:28:54.859Z,8.30
2018-02-14T12:31:23.131Z,8.90
2018-02-14T12:33:51.379Z,7.67
2018-02-14T12:36:18.870Z,9.67
2018-02-14T12:38:47.141Z,8.90
2018-02-14T12:41:16.193Z,7.83
2018-02-14T12:43:43.670Z,8.33
2018-02-14T12:46:11.138Z,9.40
2018-02-14T12:48:38.622Z,9.40
2018-02-14T12:51:06.397Z,7.37
2018-02-14T12:53:34.639Z,8.17
2018-02-14T12:56:02.104Z,8.57
2018-02-14T12:58:30.362Z,8.77
2018-02-14T13:00:57.858Z,8.40
2018-02-14T13:03:25.355Z,9.80
2018-02-14T13:05:52.851Z,8.53
2018-02-14T13:08:21.100Z,9.60
2018-02-14T13:10:48.622Z,9.50
2018-02-14T13:13:16.176Z,9.40
2018-02-14T13:15:43.676Z,8.00
2018-02-14T13:18:11.170Z,8.20
2018-02-14T13:20:39.396Z,9.20
2018-02-14T13:23:06.912Z,8.63
2018-02-14T13:25:35.157Z,7.10
2018-02-14T13:28:03.438Z,7.30
2018-02-14T13:30:31.737Z,8.30
2018-02-14T13:32:59.237Z,8.00
2018-02-14T13:35:26.762Z,7.17
2018-02-14T13:37:54.288Z,7.07
2018-02-14T13:40:22.575Z,8.40
2018-02-14T13:42:50.093Z,8.27
2018-02-14T13:45:17.565Z,8.90
2018-02-14T13:47:45.071Z,10.43
2018-02-14T13:50:12.581Z,8.23
2018-02-14T13:52:44.032Z,9.10
2018-02-14T13:55:12.374Z,7.87
2018-02-14T13:57:39.963Z,7.77
2018-02-14T14:00:08.317Z,6.33
2018-02-14T14:02:35.853Z,8.43
2018-02-14T14:05:03.382Z,8.50
2018-02-14T14:07:30.964Z,7.57
2018-02-14T14:09:59.280Z,9.03
2018-02-14T14:12:26.926Z,8.40
2018-02-14T14:14:54.427Z,8.50
2018-02-14T14:17:21.939Z,7.60
2018-02-14T14:19:49.435Z,7.67
2018-02-14T14:22:16.996Z,8.13
2018-02-14T14:24:44.468Z,8.80
2018-02-14T14:27:11.957Z,8.13
2018-02-14T14:29:39.446Z,8.27
2018-02-14T14:32:06.926Z,7.47
2018-02-14T14:34:34.428Z,8.03
2018-02-14T14:37:01.957Z,8.20
2018-02-14T14:39:29.482Z,8.90
2018-02-14T14:41:57.056Z,8.13
2018-02-14T14:44:24.587Z,8.63
2018-02-14T14:46:52.178Z,8.77
2018-02-14T14:49:19.712Z,8.23
2018-02-14T14:51:47.909Z,7.47
2018-02-14T14:54:15.476Z,7.83
2018-02-14T14:56:43.081Z,8.37
2018-02-14T14:59:10.642Z,9.30
2018-02-14T15:01:38.148Z,7.17
2018-02-14T15:04:05.639Z,8.90
2018-02-14T15:06:33.139Z,7.37
2018-02-14T15:09:00.645Z,9.00
2018-02-14T15:11:28.202Z,9.07
2018-02-14T15:13:55.766Z,7.73
2018-02-14T15:16:23.227Z,8.00
2018-02-14T15:18:51.508Z,9.33
2018-02-14T15:21:19.894Z,8.00
2018-02-14T15:23:47.404Z,7.67
2018-02-14T15:26:14.903Z,9.53
2018-02-14T15:28:43.176Z,8.77
2018-02-14T15:31:10.722Z,6.03
2018-02-14T15:33:38.190Z,8.93
2018-02-14T15:36:05.705Z,9.23
2018-02-14T15:38:33.183Z,9.30
2018-02-14T15:41:00.689Z,10.23
2018-02-14T15:43:28.196Z,8.83
2018-02-14T15:45:55.676Z,9.87
2018-02-14T15:48:23.172Z,7.90
2018-02-14T15:50:50.669Z,7.93
2018-02-14T15:53:18.169Z,9.83
2018-02-14T15:55:45.665Z,8.60
2018-02-14T15:58:13.178Z,7.20
2018-02-14T16:00:40.729Z,8.23
2018-02-14T16:03:08.229Z,8.20
2018-02-14T16:05:35.764Z,7.47
2018-02-14T16:08:03.738Z,6.90
2018-02-14T16:10:31.237Z,7.40
2018-02-14T16:12:58.731Z,7.20
2018-02-14T16:15:26.259Z,7.37
2018-02-14T16:17:54.780Z,8.07
2018-02-14T16:20:22.450Z,7.40
2018-02-14T16:22:50.153Z,8.40
2018-02-14T16:25:17.828Z,7.60
2018-02-14T16:27:46.395Z,7.60
2018-02-14T16:30:13.949Z,27.03
2018-02-14T16:32:42.514Z,8.93
2018-02-14T16:35:10.059Z,8.67
2018-02-14T16:37:37.897Z,8.37
2018-02-14T16:40:06.201Z,8.53
2018-02-14T16:42:33.714Z,7.73
2018-02-14T16:45:01.223Z,7.67
2018-02-14T16:47:28.736Z,8.60
2018-02-14T16:49:56.216Z,8.30
2018-02-14T16:52:24.545Z,9.57
2018-02-14T16:54:52.063Z,7.47
2018-02-14T16:57:19.631Z,9.90
2018-02-14T16:59:47.076Z,9.00
2018-02-14T17:02:14.602Z,8.80
2018-02-14T17:04:42.140Z,8.57
2018-02-14T17:07:10.130Z,7.70
2018-02-14T17:09:37.591Z,9.13
2018-02-14T17:12:05.893Z,8.90
2018-02-14T17:14:33.400Z,7.50
2018-02-14T17:17:00.912Z,9.00
2018-02-14T17:19:28.390Z,8.93
2018-02-14T17:21:56.446Z,9.00
2018-02-14T17:24:23.946Z,8.70
2018-02-14T17:26:51.478Z,9.67
2018-02-14T17:29:19.733Z,9.00
2018-02-14T17:31:47.236Z,8.90
2018-02-14T17:34:14.720Z,8.90
2018-02-14T17:36:42.254Z,10.83
2018-02-14T17:39:09.780Z,10.47
2018-02-14T17:41:37.264Z,9.77
2018-02-14T17:44:04.790Z,10.57
2018-02-14T17:46:32.365Z,9.00
2018-02-14T17:48:59.898Z,8.50
2018-02-14T17:51:27.397Z,10.10
2018-02-14T17:53:54.893Z,8.77
2018-02-14T17:56:23.181Z,10.23
2018-02-14T17:58:50.711Z,9.90
2018-02-14T18:01:18.248Z,8.50
2018-02-14T18:03:45.766Z,9.87
2018-02-14T18:06:13.372Z,11.50
2018-02-14T18:08:40.896Z,9.97
2018-02-14T18:11:08.461Z,10.00
2018-02-14T18:13:36.102Z,9.17
2018-02-14T18:16:04.031Z,11.43
2018-02-14T18:18:31.630Z,8.97
2018-02-14T18:20:59.270Z,9.80
2018-02-14T18:23:26.853Z,10.20
2018-02-14T18:25:54.481Z,11.53
2018-02-14T18:28:22.058Z,10.90
2018-02-14T18:30:49.634Z,9.67
2018-02-14T18:33:17.140Z,10.13
2018-02-14T18:35:44.758Z,12.13
2018-02-14T18:38:13.106Z,10.93
2018-02-14T18:40:40.646Z,13.07
2018-02-14T18:43:09.021Z,12.40
2018-02-14T18:45:36.570Z,11.77
2018-02-14T18:48:04.148Z,11.93
2018-02-14T18:50:31.693Z,11.30
2018-02-14T18:52:59.276Z,10.90
2018-02-14T18:55:27.566Z,11.33
2018-02-14T18:57:55.145Z,9.87
2018-02-14T19:00:22.709Z,11.70
2018-02-14T19:02:50.322Z,12.67
2018-02-14T19:05:18.660Z,11.87
2018-02-14T19:07:46.195Z,10.73
2018-02-14T19:10:13.685Z,10.83
2018-02-14T19:12:41.262Z,13.00
2018-02-14T19:15:08.740Z,9.33
2018-02-14T19:17:37.013Z,10.10
2018-02-14T19:20:04.500Z,10.77
2018-02-14T19:22:32.010Z,11.40
2018-02-14T19:24:59.588Z,11.10
2018-02-14T19:27:27.096Z,10.67
2018-02-14T19:29:54.656Z,10.23
2018-02-14T19:32:22.169Z,10.97
2018-02-14T19:34:49.733Z,10.47
2018-02-14T19:37:18.013Z,9.90
2018-02-14T19:39:46.290Z,8.57
2018-02-14T19:42:14.618Z,11.73
2018-02-14T19:44:42.119Z,8.27
2018-02-14T19:47:10.393Z,9.63
2018-02-14T19:49:38.726Z,10.50
2018-02-14T19:52:06.222Z,11.63
2018-02-14T19:54:33.747Z,8.50
2018-02-14T19:57:02.195Z,12.47
2018-02-14T19:59:29.784Z,11.70
2018-02-14T20:01:57.305Z,11.70
2018-02-14T20:04:24.863Z,11.70
2018-02-14T20:06:53.180Z,12.63
2018-02-14T20:09:20.688Z,12.53
2018-02-14T20:11:48.966Z,11.00
2018-02-14T20:14:16.487Z,11.30
2018-02-14T20:16:43.997Z,11.60
2018-02-14T20:19:12.298Z,7.43
2018-02-14T20:21:39.803Z,8.03
2018-02-14T20:24:07.323Z,9.80
2018-02-14T20:26:34.854Z,9.30
2018-02-14T20:29:02.351Z,7.30
2018-02-14T20:31:29.889Z,10.23
2018-02-14T20:33:57.427Z,10.20
2018-02-14T20:36:24.924Z,11.03
2018-02-14T20:38:52.433Z,10.73
2018-02-14T20:41:19.971Z,10.87
2018-02-14T20:43:47.538Z,9.10
2018-02-14T20:46:15.111Z,8.27
2018-02-14T20:48:42.682Z,10.13
2018-02-14T20:51:10.264Z,10.53
2018-02-14T20:53:37.777Z,10.00
2018-02-14T20:56:05.250Z,8.30
2018-02-14T20:58:32.860Z,11.30
2018-02-14T21:01:01.196Z,8.47
2018-02-14T21:03:29.544Z,8.70
2018-02-14T21:05:57.830Z,9.67
2018-02-14T21:08:25.375Z,10.33
2018-02-14T21:10:53.658Z,10.20
2018-02-14T21:13:21.933Z,10.07
2018-02-14T21:15:49.464Z,8.43
2018-02-14T21:18:16.977Z,11.20
2018-02-14T21:20:44.503Z,11.73
2018-02-14T21:23:12.130Z,8.23
2018-02-14T21:25:39.639Z,7.50
2018-02-14T21:28:07.213Z,7.20
2018-02-14T21:30:34.716Z,9.60
2018-02-14T21:33:02.232Z,9.20
2018-02-14T21:35:29.760Z,6.60
2018-02-14T21:37:58.035Z,7.93
2018-02-14T21:40:26.341Z,7.70
2018-02-14T21:42:53.876Z,9.80
2018-02-14T21:45:22.207Z,8.27
2018-02-14T21:47:49.724Z,9.57
2018-02-14T21:50:17.278Z,7.97
2018-02-14T21:52:44.780Z,9.40
2018-02-14T21:55:12.280Z,8.47
2018-02-14T21:57:40.557Z,8.93
2018-02-14T22:00:08.076Z,11.70
2018-02-14T22:02:35.852Z,10.87
2018-02-14T22:05:04.449Z,10.63
2018-02-14T22:07:32.003Z,8.93
2018-02-14T22:10:00.325Z,8.93
2018-02-14T22:12:27.900Z,6.87
2018-02-14T22:14:55.472Z,8.90
2018-02-14T22:17:23.036Z,6.67
2018-02-14T22:19:50.590Z,9.00
2018-02-14T22:22:18.181Z,9.40
2018-02-14T22:24:45.791Z,7.30
2018-02-14T22:27:14.079Z,8.47
2018-02-14T22:29:41.639Z,7.93
2018-02-14T22:32:09.273Z,8.33
2018-02-14T22:34:36.926Z,7.93
2018-02-14T22:37:04.484Z,12.00
2018-02-14T22:39:32.054Z,10.90
2018-02-14T22:41:59.713Z,8.10
2018-02-14T22:44:27.287Z,10.00
2018-02-14T22:46:54.889Z,9.97
2018-02-14T22:49:22.478Z,9.77
2018-02-14T22:51:49.991Z,9.93
2018-02-14T22:54:17.546Z,10.27
2018-02-14T22:56:45.167Z,8.63
2018-02-14T22:59:12.663Z,8.67
2018-02-14T23:01:40.217Z,9.47
2018-02-14T23:04:08.015Z,8.60
2018-02-14T23:06:35.566Z,9.33
2018-02-14T23:09:03.092Z,8.40
2018-02-14T23:11:30.914Z,9.30
2018-02-14T23:13:58.779Z,7.97
2018-02-14T23:16:26.272Z,7.60
2018-02-14T23:18:53.828Z,7.10
2018-02-14T23:21:21.761Z,9.77
2018-02-14T23:23:49.639Z,11.20
2018-02-14T23:26:17.459Z,8.83
2018-02-14T23:28:44.984Z,9.60
2018-02-14T23:31:12.532Z,8.00
2018-02-14T23:33:40.023Z,9.47
2018-02-14T23:36:07.522Z,11.50
2018-02-14T23:38:35.835Z,8.57
2018-02-14T23:41:03.333Z,7.07
2018-02-14T23:43:30.898Z,8.80
2018-02-14T23:45:58.404Z,8.73
2018-02-14T23:48:25.939Z,9.60
2018-02-14T23:50:54.239Z,10.03
2018-02-14T23:53:21.723Z,9.17
2018-02-14T23:55:49.240Z,7.87
2018-02-14T23:58:16.716Z,8.40
